Time;durP1;ratioP1;P1;durP2;ratioP2;P2;SDS_P1;SDS_P2;PMS_P1;PMS_P2;Temp;Humidity;BMP_temperature;BMP_pressure;BME280_temperature;BME280_humidity;BME280_pressure;Samples;Min_cycle;Max_cycle;Signal;HPM_P1;HPM_P2
2022/11/08 00:01:49;;;;;;;0.38;0.38;;;16.20;92.90;;;;;;4245813;27;20057;-63
2022/11/08 00:04:33;;;;;;;0.00;0.00;;;16.20;92.50;;;;;;4223314;28;20046;-63
2022/11/08 00:16:09;;;;;;;1.50;1.40;;;16.20;92.60;;;;;;4224567;28;20050;-62
2022/11/08 00:18:49;;;;;;;0.00;0.00;;;16.20;92.60;;;;;;4251601;27;20050;-62
2022/11/08 00:21:32;;;;;;;0.10;0.10;;;16.20;92.60;;;;;;4256983;27;20094;-61
2022/11/08 00:24:12;;;;;;;0.00;0.00;;;16.20;92.60;;;;;;4257962;27;20127;-62
2022/11/08 00:26:53;;;;;;;0.00;0.00;;;16.20;92.60;;;;;;4258944;27;20057;-62
2022/11/08 00:29:35;;;;;;;0.00;0.00;;;16.20;92.70;;;;;;4249139;27;20097;-61
2022/11/08 00:32:19;;;;;;;0.10;0.10;;;16.20;92.70;;;;;;4225143;28;20092;-61
2022/11/08 00:34:59;;;;;;;0.55;0.35;;;16.20;92.70;;;;;;4225473;27;20054;-63
2022/11/08 00:37:42;;;;;;;0.00;0.00;;;16.20;92.70;;;;;;4241358;28;20050;-63
2022/11/08 00:40:22;;;;;;;1.08;0.93;;;16.20;92.70;;;;;;4241312;27;20050;-63
2022/11/08 00:43:03;;;;;;;0.00;0.00;;;16.20;92.70;;;;;;4241292;28;20206;-64
2022/11/08 00:45:45;;;;;;;0.00;0.00;;;16.20;92.70;;;;;;4224319;28;20136;-63
2022/11/08 00:48:25;;;;;;;0.00;0.00;;;16.10;93.10;;;;;;4242233;27;20054;-63
2022/11/08 00:51:08;;;;;;;3.28;0.90;;;16.10;92.70;;;;;;4261883;27;20614;-63
2022/11/08 00:53:50;;;;;;;0.00;0.00;;;16.20;92.70;;;;;;4257404;27;20054;-63
2022/11/08 00:56:30;;;;;;;0.00;0.00;;;16.20;92.70;;;;;;4244428;27;20042;-63
2022/11/08 00:59:12;;;;;;;0.00;0.00;;;16.20;92.70;;;;;;4242891;27;20065;-62
2022/11/08 01:01:53;;;;;;;0.00;0.00;;;16.20;92.80;;;;;;4261492;27;20107;-63
2022/11/08 01:04:34;;;;;;;0.40;0.40;;;16.10;92.80;;;;;;4261661;27;20440;-62
2022/11/08 01:07:15;;;;;;;0.00;0.00;;;16.20;92.80;;;;;;4256111;27;20496;-62
2022/11/08 01:09:58;;;;;;;0.00;0.00;;;16.20;92.80;;;;;;4216460;28;20448;-62
2022/11/08 01:12:38;;;;;;;0.00;0.00;;;16.10;92.80;;;;;;4242465;27;20480;-61
2022/11/08 01:15:19;;;;;;;0.08;0.08;;;16.20;92.80;;;;;;4242315;27;20131;-62
2022/11/08 01:18:01;;;;;;;0.00;0.00;;;16.10;92.80;;;;;;4244576;27;20570;-62
2022/11/08 01:20:43;;;;;;;0.00;0.00;;;16.10;92.80;;;;;;4243883;27;20054;-61
2022/11/08 01:23:24;;;;;;;0.00;0.00;;;16.10;92.80;;;;;;4243533;27;20060;-62
2022/11/08 01:26:08;;;;;;;0.00;0.00;;;16.10;92.80;;;;;;4244094;27;20054;-61
2022/11/08 01:28:49;;;;;;;0.00;0.00;;;16.10;92.80;;;;;;4214601;27;20059;-62
2022/11/08 01:31:32;;;;;;;0.13;0.13;;;16.10;92.80;;;;;;4227151;27;20058;-62
2022/11/08 01:34:12;;;;;;;0.00;0.00;;;16.10;92.80;;;;;;4227428;27;20120;-62
2022/11/08 01:36:53;;;;;;;0.00;0.00;;;16.10;92.90;;;;;;4215645;27;20057;-61
2022/11/08 01:39:34;;;;;;;0.00;0.00;;;16.10;92.90;;;;;;4259675;27;20381;-62
2022/11/08 01:42:17;;;;;;;0.00;0.00;;;16.10;92.90;;;;;;4261028;27;20074;-62
2022/11/08 01:44:58;;;;;;;0.00;0.00;;;16.10;92.90;;;;;;4261126;27;20045;-62
2022/11/08 01:47:39;;;;;;;0.00;0.00;;;16.10;92.90;;;;;;4252990;27;20501;-62
2022/11/08 01:50:20;;;;;;;0.00;0.00;;;16.10;92.90;;;;;;4243382;27;20049;-62
2022/11/08 01:53:01;;;;;;;0.00;0.00;;;16.10;92.90;;;;;;4226834;28;20516;-61
2022/11/08 01:55:42;;;;;;;0.00;0.00;;;16.10;92.90;;;;;;4241677;27;20042;-62
2022/11/08 01:58:30;;;;;;;4.65;1.65;;;16.10;92.90;;;;;;4246065;27;20406;-64
2022/11/08 02:01:12;;;;;;;0.00;0.00;;;16.10;92.90;;;;;;4243152;27;20081;-62
2022/11/08 02:03:53;;;;;;;0.00;0.00;;;16.10;93.00;;;;;;4243270;27;20179;-62
2022/11/08 02:06:37;;;;;;;0.00;0.00;;;16.10;92.90;;;;;;4242479;27;20409;-62
2022/11/08 02:09:19;;;;;;;0.00;0.00;;;16.10;93.00;;;;;;4226704;27;20054;-62
2022/11/08 02:12:00;;;;;;;0.00;0.00;;;16.10;92.90;;;;;;4225754;27;20046;-62
2022/11/08 02:14:42;;;;;;;0.13;0.13;;;16.10;92.90;;;;;;4226324;27;20547;-63
2022/11/08 02:17:23;;;;;;;0.17;0.17;;;16.10;93.00;;;;;;4245965;27;20477;-62
2022/11/08 02:20:06;;;;;;;0.00;0.00;;;16.10;93.00;;;;;;4240527;27;20054;-64
2022/11/08 02:22:52;;;;;;;0.00;0.00;;;16.10;92.90;;;;;;4242856;27;20069;-64
2022/11/08 02:25:34;;;;;;;0.00;0.00;;;16.10;92.90;;;;;;4243048;27;20489;-64
2022/11/08 02:28:15;;;;;;;0.00;0.00;;;16.10;92.90;;;;;;4258616;27;20471;-64
2022/11/08 02:30:56;;;;;;;;;;;16.10;93.00;;;;;;4260709;27;20045;-64
2022/11/08 02:33:37;;;;;;;0.00;0.00;;;16.00;92.90;;;;;;4259761;27;20011;-64
2022/11/08 02:36:22;;;;;;;0.00;0.00;;;16.00;92.90;;;;;;4220299;27;20389;-64
2022/11/08 02:39:03;;;;;;;0.00;0.00;;;16.00;93.00;;;;;;4226128;27;20184;-64
2022/11/08 02:41:45;;;;;;;0.00;0.00;;;16.00;93.00;;;;;;4225962;27;20066;-64
2022/11/08 02:44:26;;;;;;;0.00;0.00;;;16.00;93.00;;;;;;4225612;27;20410;-64
2022/11/08 02:47:07;;;;;;;0.43;0.43;;;16.00;93.00;;;;;;4237420;27;20053;-64
2022/11/08 02:49:48;;;;;;;0.00;0.00;;;16.00;93.00;;;;;;4241020;27;20078;-63
2022/11/08 02:52:29;;;;;;;0.00;0.00;;;16.00;93.00;;;;;;4226079;28;20394;-63
2022/11/08 02:55:10;;;;;;;0.00;0.00;;;16.00;93.10;;;;;;4225779;28;20482;-64
2022/11/08 02:57:53;;;;;;;0.00;0.00;;;16.00;93.10;;;;;;4256476;27;20053;-64
2022/11/08 03:00:33;;;;;;;0.00;0.00;;;16.00;93.10;;;;;;4259624;27;20485;-64
2022/11/08 03:03:14;;;;;;;0.00;0.00;;;16.00;93.00;;;;;;4259644;27;20550;-64
2022/11/08 03:05:56;;;;;;;0.00;0.00;;;16.00;93.40;;;;;;4246044;27;20065;-64
2022/11/08 03:08:37;;;;;;;0.00;0.00;;;16.00;93.10;;;;;;4224871;28;20050;-63
2022/11/08 03:11:18;;;;;;;0.00;0.00;;;16.00;93.10;;;;;;4241786;27;20050;-62
2022/11/08 03:14:00;;;;;;;0.30;0.30;;;16.00;93.10;;;;;;4242085;27;20754;-62
2022/11/08 03:16:41;;;;;;;0.55;0.55;;;16.00;93.10;;;;;;4225352;27;20403;-62
2022/11/08 03:19:22;;;;;;;0.00;0.00;;;16.00;93.10;;;;;;4225457;27;20451;-62
2022/11/08 03:22:03;;;;;;;0.00;0.00;;;16.00;93.10;;;;;;4225506;27;20065;-62
2022/11/08 03:24:44;;;;;;;0.13;0.13;;;16.00;93.10;;;;;;4237576;27;20120;-62
2022/11/08 03:27:25;;;;;;;0.10;0.10;;;15.90;93.10;;;;;;4259063;27;20735;-61
2022/11/08 03:30:08;;;;;;;0.00;0.00;;;15.90;93.10;;;;;;4259175;27;20094;-62
2022/11/08 03:32:49;;;;;;;0.00;0.00;;;15.90;93.10;;;;;;4259382;27;20057;-62
2022/11/08 03:35:31;;;;;;;0.00;0.00;;;15.90;93.10;;;;;;4247397;27;20045;-62
2022/11/08 03:38:11;;;;;;;0.35;0.35;;;15.90;93.10;;;;;;4243135;27;20054;-63
2022/11/08 03:40:52;;;;;;;0.00;0.00;;;15.90;93.10;;;;;;4242094;27;20509;-63
2022/11/08 03:43:33;;;;;;;0.10;0.10;;;15.90;93.10;;;;;;4241426;27;20069;-63
2022/11/08 03:46:16;;;;;;;0.00;0.00;;;15.90;93.10;;;;;;4225070;27;20051;-63
2022/11/08 03:48:57;;;;;;;0.00;0.00;;;15.90;93.50;;;;;;4225169;27;20406;-63
2022/11/08 03:51:38;;;;;;;0.40;0.40;;;15.90;93.10;;;;;;4212896;27;20043;-63
2022/11/08 03:54:19;;;;;;;0.00;0.00;;;15.90;93.10;;;;;;4227526;28;20180;-63
2022/11/08 03:56:59;;;;;;;0.00;0.00;;;15.90;93.10;;;;;;4224707;28;20292;-62
2022/11/08 03:59:40;;;;;;;0.68;0.65;;;15.90;93.10;;;;;;4217051;28;20058;-62
2022/11/08 04:02:23;;;;;;;0.00;0.00;;;15.90;93.20;;;;;;4259513;27;20054;-62
2022/11/08 04:05:06;;;;;;;0.25;0.25;;;15.90;93.10;;;;;;4248939;27;20504;-62
2022/11/08 04:07:47;;;;;;;0.00;0.00;;;15.90;93.20;;;;;;4241734;28;20547;-62
2022/11/08 04:10:28;;;;;;;;;;;15.90;93.20;;;;;;4242069;28;20050;-61
2022/11/08 04:16:08;;;;;;;0.43;0.43;;;15.90;93.20;;;;;;4224646;27;20124;-62
2022/11/08 04:21:53;;;;;;;0.00;0.00;;;15.90;93.20;;;;;;4224021;27;20062;-62
2022/11/08 04:24:34;;;;;;;0.00;0.00;;;15.80;93.20;;;;;;4243991;27;20061;-61
2022/11/08 04:27:15;;;;;;;0.00;0.00;;;15.90;93.20;;;;;;4261994;27;20061;-62
2022/11/08 04:29:56;;;;;;;0.00;0.00;;;15.80;93.20;;;;;;4262371;27;20067;-61
2022/11/08 04:32:37;;;;;;;0.08;0.08;;;15.80;93.60;;;;;;4262235;27;20054;-62
2022/11/08 04:35:20;;;;;;;0.00;0.00;;;15.80;93.20;;;;;;4247769;27;20054;-62
2022/11/08 04:38:02;;;;;;;0.00;0.00;;;15.80;93.20;;;;;;4245340;27;20046;-62
2022/11/08 04:40:43;;;;;;;0.00;0.00;;;15.80;93.20;;;;;;4261847;27;20045;-62
2022/11/08 04:43:24;;;;;;;0.00;0.00;;;15.80;93.30;;;;;;4249671;27;20139;-62
2022/11/08 04:46:06;;;;;;;0.00;0.00;;;15.80;93.30;;;;;;4244373;27;20047;-62
2022/11/08 04:48:49;;;;;;;0.15;0.15;;;15.80;93.30;;;;;;4231765;27;20132;-62
2022/11/08 04:51:33;;;;;;;0.00;0.00;;;15.80;93.30;;;;;;4244779;27;20053;-62
2022/11/08 04:54:14;;;;;;;0.00;0.00;;;15.80;93.30;;;;;;4238857;27;20106;-62
2022/11/08 04:56:55;;;;;;;0.00;0.00;;;15.80;93.30;;;;;;4244285;27;20485;-61
2022/11/08 04:59:36;;;;;;;0.00;0.00;;;15.80;93.30;;;;;;4244176;27;20050;-62
2022/11/08 05:02:17;;;;;;;0.00;0.00;;;15.80;93.30;;;;;;4242246;27;20042;-62
2022/11/08 05:04:57;;;;;;;0.00;0.00;;;15.80;93.30;;;;;;4261763;27;20512;-62
2022/11/08 05:07:40;;;;;;;0.00;0.00;;;15.80;93.30;;;;;;4261605;27;20118;-62
2022/11/08 05:10:20;;;;;;;0.00;0.00;;;15.80;93.30;;;;;;4248702;27;20115;-62
2022/11/08 05:13:01;;;;;;;0.00;0.00;;;15.80;93.30;;;;;;4216967;27;20046;-62
2022/11/08 05:15:42;;;;;;;0.00;0.00;;;15.80;93.70;;;;;;4243668;27;20058;-62
2022/11/08 05:18:23;;;;;;;0.00;0.00;;;15.80;93.30;;;;;;4227361;28;20402;-62
2022/11/08 05:24:14;;;;;;;0.10;0.10;;;15.80;93.30;;;;;;4232407;27;20046;-62
2022/11/08 05:26:56;;;;;;;0.00;0.00;;;15.80;93.30;;;;;;4243815;27;20054;-65
2022/11/08 05:29:37;;;;;;;0.22;0.22;;;15.70;93.30;;;;;;4230386;27;20162;-62
2022/11/08 05:32:21;;;;;;;0.00;0.00;;;15.80;93.40;;;;;;4225230;27;20509;-64
2022/11/08 05:35:02;;;;;;;0.00;0.00;;;15.70;93.40;;;;;;4226852;27;20050;-64
2022/11/08 05:37:43;;;;;;;1.08;0.88;;;15.70;93.40;;;;;;4227088;27;20059;-62
2022/11/08 05:40:25;;;;;;;0.00;0.00;;;15.80;93.40;;;;;;4226955;27;20517;-62
2022/11/08 05:43:12;;;;;;;0.00;0.00;;;15.80;93.40;;;;;;4213975;27;20050;-63
2022/11/08 05:45:53;;;;;;;0.00;0.00;;;15.70;93.40;;;;;;4225329;28;20128;-62
2022/11/08 05:48:34;;;;;;;0.00;0.00;;;15.70;93.40;;;;;;4231415;27;20116;-62
2022/11/08 05:51:16;;;;;;;0.10;0.10;;;15.70;93.40;;;;;;4247041;27;20049;-62
2022/11/08 05:53:57;;;;;;;0.00;0.00;;;15.70;93.40;;;;;;4255031;27;20047;-62
2022/11/08 05:56:39;;;;;;;0.00;0.00;;;15.70;93.40;;;;;;4258609;27;20405;-62
2022/11/08 05:59:20;;;;;;;0.03;0.03;;;15.70;93.40;;;;;;4261089;27;20116;-61
2022/11/08 06:02:01;;;;;;;0.00;0.00;;;15.70;93.40;;;;;;4249066;27;20062;-62
2022/11/08 06:04:42;;;;;;;0.10;0.10;;;15.70;93.40;;;;;;4241732;27;20131;-62
2022/11/08 06:07:23;;;;;;;0.00;0.00;;;15.70;93.40;;;;;;4242824;27;20047;-62
2022/11/08 06:10:05;;;;;;;0.00;0.00;;;15.70;93.40;;;;;;4230775;27;20050;-62
2022/11/08 06:12:47;;;;;;;9.00;2.17;;;15.70;93.40;;;;;;4226693;27;20843;-62
2022/11/08 06:15:28;;;;;;;0.00;0.00;;;15.70;93.00;;;;;;4225143;28;20093;-62
2022/11/08 06:18:09;;;;;;;0.00;0.00;;;15.70;93.40;;;;;;4239690;27;20408;-62
2022/11/08 06:20:50;;;;;;;0.00;0.00;;;15.70;93.40;;;;;;4260468;27;20446;-62
2022/11/08 06:23:31;;;;;;;0.00;0.00;;;15.70;93.40;;;;;;4258855;27;20054;-62
2022/11/08 06:26:12;;;;;;;0.00;0.00;;;15.70;93.40;;;;;;4243141;27;20057;-62
2022/11/08 06:28:55;;;;;;;;;;;15.70;93.40;;;;;;4243722;27;20184;-61
2022/11/08 06:31:35;;;;;;;;;;;15.70;93.40;;;;;;4243257;27;20383;-62
2022/11/08 06:34:22;;;;;;;0.00;0.00;;;15.70;93.40;;;;;;4248268;27;19926;-62
2022/11/08 06:37:05;;;;;;;0.00;0.00;;;15.70;93.30;;;;;;4241442;27;20127;-62
2022/11/08 06:39:46;;;;;;;0.00;0.00;;;15.70;93.40;;;;;;4242304;27;20050;-63
2022/11/08 06:42:27;;;;;;;0.00;0.00;;;15.60;93.50;;;;;;4242311;27;20045;-62
2022/11/08 06:45:10;;;;;;;0.10;0.10;;;15.70;93.70;;;;;;4244131;27;20054;-62
2022/11/08 06:47:57;;;;;;;0.00;0.00;;;15.70;93.70;;;;;;4258999;27;20404;-61
2022/11/08 06:50:38;;;;;;;0.00;0.00;;;15.70;94.00;;;;;;4234067;27;20050;-62
2022/11/08 06:53:18;;;;;;;0.00;0.00;;;15.70;93.60;;;;;;4215905;27;20062;-62
2022/11/08 06:56:00;;;;;;;0.00;0.00;;;15.70;93.60;;;;;;4259366;27;20147;-62
2022/11/08 06:58:41;;;;;;;0.00;0.00;;;15.70;93.60;;;;;;4247234;27;20050;-61
2022/11/08 07:01:23;;;;;;;0.00;0.00;;;15.70;93.50;;;;;;4260011;27;20126;-63
2022/11/08 07:04:04;;;;;;;0.00;0.00;;;15.70;93.60;;;;;;4251939;27;20176;-62
2022/11/08 07:06:45;;;;;;;0.00;0.00;;;15.70;93.60;;;;;;4242270;27;20054;-62
2022/11/08 07:09:26;;;;;;;0.00;0.00;;;15.70;93.50;;;;;;4241996;27;20054;-62
2022/11/08 07:12:07;;;;;;;1.48;1.38;;;15.70;93.50;;;;;;4225911;27;20058;-62
2022/11/08 07:14:48;;;;;;;0.00;0.00;;;15.60;93.50;;;;;;4239425;27;20107;-62
2022/11/08 07:17:30;;;;;;;0.00;0.00;;;15.70;93.90;;;;;;4225522;28;20058;-62
2022/11/08 07:20:17;;;;;;;0.40;0.40;;;15.60;93.50;;;;;;4225593;27;20046;-62
2022/11/08 07:22:59;;;;;;;0.00;0.00;;;15.60;93.50;;;;;;4254857;27;20042;-62
2022/11/08 07:25:40;;;;;;;0.00;0.00;;;15.60;93.50;;;;;;4237422;27;20176;-62
2022/11/08 07:28:21;;;;;;;0.00;0.00;;;15.60;93.40;;;;;;4229535;27;20099;-62
2022/11/08 07:31:03;;;;;;;0.00;0.00;;;15.60;93.40;;;;;;4242708;27;20054;-62
2022/11/08 07:33:46;;;;;;;0.00;0.00;;;15.60;93.40;;;;;;4241104;27;20038;-62
2022/11/08 07:36:26;;;;;;;0.00;0.00;;;15.60;93.40;;;;;;4241878;27;20042;-60
2022/11/08 07:39:07;;;;;;;0.22;0.22;;;15.60;93.40;;;;;;4225094;28;20059;-61
2022/11/08 07:41:48;;;;;;;0.00;0.00;;;15.60;93.50;;;;;;4242062;27;20466;-61
2022/11/08 07:44:29;;;;;;;20.77;3.40;;;15.70;93.50;;;;;;4240163;27;20072;-61
2022/11/08 07:47:10;;;;;;;0.00;0.00;;;15.70;93.50;;;;;;4224894;27;20173;-60
2022/11/08 07:49:52;;;;;;;0.43;0.43;;;15.70;93.40;;;;;;4225329;27;20176;-61
2022/11/08 07:52:33;;;;;;;23.30;2.95;;;15.70;93.40;;;;;;4234449;27;20071;-61
2022/11/08 07:55:14;;;;;;;0.00;0.00;;;15.70;93.40;;;;;;4240958;28;20060;-61
2022/11/08 07:58:00;;;;;;;0.00;0.00;;;15.70;93.40;;;;;;4240754;27;20070;-61
2022/11/08 08:00:44;;;;;;;0.20;0.20;;;15.70;93.30;;;;;;4244995;27;20070;-60
2022/11/08 08:03:25;;;;;;;0.00;0.00;;;15.70;93.40;;;;;;4261364;27;20053;-61
2022/11/08 08:06:08;;;;;;;0.00;0.00;;;15.70;93.30;;;;;;4262753;27;20045;-60
2022/11/08 08:08:48;;;;;;;8.75;1.30;;;15.70;93.30;;;;;;4262431;27;20538;-61
2022/11/08 08:11:29;;;;;;;0.10;0.10;;;15.70;93.20;;;;;;4262386;27;20053;-61
2022/11/08 08:14:13;;;;;;;0.00;0.00;;;15.60;93.20;;;;;;4262547;27;20070;-60
2022/11/08 08:16:54;;;;;;;0.00;0.00;;;15.60;93.30;;;;;;4259948;27;20502;-61
2022/11/08 08:19:35;;;;;;;0.05;0.05;;;15.60;93.30;;;;;;4262242;27;20049;-61
2022/11/08 08:22:17;;;;;;;0.15;0.15;;;15.60;93.20;;;;;;4262574;27;20369;-60
2022/11/08 08:24:58;;;;;;;0.00;0.00;;;15.70;93.20;;;;;;4248254;27;20049;-61
2022/11/08 08:27:46;;;;;;;0.10;0.10;;;15.60;93.20;;;;;;4245288;27;20054;-61
2022/11/08 08:30:28;;;;;;;0.00;0.00;;;15.60;93.20;;;;;;4234816;27;20607;-61
2022/11/08 08:33:12;;;;;;;0.00;0.00;;;15.60;93.20;;;;;;4243486;27;20047;-61
2022/11/08 08:36:09;;;;;;;0.52;0.52;;;15.60;93.20;;;;;;4242784;27;20045;-61
2022/11/08 08:38:52;;;;;;;0.00;0.00;;;15.60;93.10;;;;;;4243027;27;20057;-60
2022/11/08 08:41:32;;;;;;;0.10;0.10;;;15.60;93.10;;;;;;4244445;27;20042;-61
2022/11/08 08:44:13;;;;;;;0.00;0.00;;;15.60;93.50;;;;;;4231519;27;20106;-61
2022/11/08 08:46:55;;;;;;;0.00;0.00;;;15.60;93.10;;;;;;4227856;28;20109;-61
2022/11/08 08:49:36;;;;;;;0.00;0.00;;;15.60;93.00;;;;;;4258077;27;20199;-60
2022/11/08 08:52:17;;;;;;;0.00;0.00;;;15.60;93.10;;;;;;4261876;27;20132;-61
2022/11/08 08:54:59;;;;;;;0.10;0.10;;;15.60;93.00;;;;;;4247659;27;20120;-61
2022/11/08 08:57:44;;;;;;;0.00;0.00;;;15.60;93.00;;;;;;4244815;27;20040;-61
2022/11/08 09:00:25;;;;;;;0.00;0.00;;;15.60;93.00;;;;;;4214621;28;20173;-61
2022/11/08 09:03:26;;;;;;;0.15;0.15;;;15.60;93.00;;;;;;4227176;28;20131;-61
2022/11/08 09:06:08;;;;;;;0.20;0.20;;;15.60;92.90;;;;;;4230268;27;20181;-61
2022/11/08 09:08:48;;;;;;;0.00;0.00;;;15.70;93.00;;;;;;4244031;27;20057;-61
2022/11/08 09:11:31;;;;;;;0.03;0.03;;;15.60;93.00;;;;;;4244201;27;20046;-61
2022/11/08 09:14:11;;;;;;;1.65;1.15;;;15.60;92.90;;;;;;4235984;27;20054;-61
2022/11/08 09:16:52;;;;;;;0.40;0.32;;;15.60;92.90;;;;;;4261485;27;20053;-61
2022/11/08 09:19:33;;;;;;;0.00;0.00;;;15.60;92.90;;;;;;4246504;27;20050;-61
2022/11/08 09:22:14;;;;;;;0.00;0.00;;;15.60;92.90;;;;;;4246109;27;20159;-60
2022/11/08 09:24:55;;;;;;;0.05;0.05;;;15.60;92.90;;;;;;4214566;28;20070;-60
2022/11/08 09:27:37;;;;;;;0.10;0.10;;;15.70;92.90;;;;;;4243901;27;20113;-60
2022/11/08 09:30:18;;;;;;;0.00;0.00;;;15.70;92.90;;;;;;4227154;27;20062;-60
2022/11/08 09:32:59;;;;;;;0.00;0.00;;;15.70;92.90;;;;;;4225299;28;20387;-61
2022/11/08 09:35:45;;;;;;;0.43;0.43;;;15.70;93.00;;;;;;4210007;27;20113;-61
2022/11/08 09:38:25;;;;;;;0.22;0.22;;;15.70;93.00;;;;;;4226338;27;20173;-60
2022/11/08 09:41:27;;;;;;;0.43;0.43;;;15.70;92.90;;;;;;4216350;27;20046;-60
2022/11/08 09:44:20;;;;;;;0.38;0.38;;;15.70;92.90;;;;;;4260775;27;20058;-61
2022/11/08 09:47:04;;;;;;;0.65;0.65;;;15.70;93.00;;;;;;4255777;27;20135;-61
2022/11/08 09:49:49;;;;;;;0.00;0.00;;;15.70;93.00;;;;;;4225739;28;20059;-60
2022/11/08 09:52:31;;;;;;;2.10;1.52;;;15.70;92.90;;;;;;4226665;27;20193;-60
2022/11/08 09:55:22;;;;;;;0.28;0.28;;;15.70;92.90;;;;;;4242764;27;20042;-61
2022/11/08 09:58:15;;;;;;;0.32;0.32;;;15.70;93.00;;;;;;4226485;27;20062;-60
2022/11/08 10:00:58;;;;;;;4.60;3.45;;;15.70;93.00;;;;;;4226455;27;20386;-61
2022/11/08 10:03:43;;;;;;;0.25;0.17;;;15.70;93.00;;;;;;4231066;27;20517;-61
2022/11/08 10:06:45;;;;;;;0.77;0.77;;;15.70;93.00;;;;;;4256389;27;20053;-60
2022/11/08 10:09:38;;;;;;;0.88;0.82;;;15.70;93.00;;;;;;4260366;27;20542;-60
2022/11/08 10:12:25;;;;;;;0.80;0.80;;;15.70;93.00;;;;;;4260083;27;20433;-60
2022/11/08 10:15:18;;;;;;;0.20;0.20;;;15.70;93.00;;;;;;4258074;27;20480;-61
2022/11/08 10:18:20;;;;;;;0.00;0.00;;;15.70;93.00;;;;;;4241508;27;20046;-59
2022/11/08 10:21:05;;;;;;;0.00;0.00;;;15.70;93.00;;;;;;4241675;27;20050;-60
2022/11/08 10:23:53;;;;;;;0.08;0.08;;;15.70;92.90;;;;;;4244049;27;20386;-60
2022/11/08 10:26:37;;;;;;;1.75;1.65;;;15.70;92.90;;;;;;4209314;28;20059;-60
2022/11/08 10:29:21;;;;;;;0.05;0.05;;;15.80;93.30;;;;;;4228340;27;20051;-60
2022/11/08 10:32:11;;;;;;;0.08;0.08;;;15.70;92.90;;;;;;4251282;27;20099;-60
2022/11/08 10:35:01;;;;;;;0.25;0.25;;;15.80;92.90;;;;;;4260541;27;20398;-60
2022/11/08 10:37:44;;;;;;;0.00;0.00;;;15.80;92.90;;;;;;4243325;27;20200;-60
2022/11/08 10:40:37;;;;;;;0.20;0.20;;;15.80;92.80;;;;;;4226430;27;20046;-60
2022/11/08 10:43:24;;;;;;;0.28;0.28;;;15.80;92.80;;;;;;4225783;27;20185;-59
2022/11/08 10:46:11;;;;;;;0.10;0.10;;;15.80;92.80;;;;;;4225528;27;20050;-59
2022/11/08 10:48:52;;;;;;;19.02;1.55;;;15.80;92.80;;;;;;4241646;27;20505;-60
2022/11/08 10:51:35;;;;;;;1.55;1.15;;;15.80;92.90;;;;;;4242050;27;20519;-59
2022/11/08 10:54:41;;;;;;;0.47;0.47;;;15.80;92.90;;;;;;4232032;27;20054;-59
2022/11/08 10:57:25;;;;;;;1.70;1.65;;;15.80;92.90;;;;;;4241274;27;20755;-59
2022/11/08 11:00:28;;;;;;;3.55;2.90;;;15.80;92.90;;;;;;4242291;27;20046;-57
2022/11/08 11:03:27;;;;;;;4.43;3.05;;;15.80;93.00;;;;;;4240718;27;20058;-59
2022/11/08 11:06:23;;;;;;;1.83;1.77;;;15.80;93.20;;;;;;4240279;27;20050;-60
2022/11/08 11:09:18;;;;;;;4.18;1.95;;;15.80;93.30;;;;;;4224678;27;20068;-60
2022/11/08 11:12:01;;;;;;;6.22;5.00;;;15.80;93.20;;;;;;4225148;27;20127;-60
2022/11/08 11:14:42;;;;;;;4.57;4.38;;;15.80;93.30;;;;;;4224679;27;20402;-60
2022/11/08 11:17:28;;;;;;;2.85;2.67;;;15.80;93.30;;;;;;4231745;27;20046;-59
2022/11/08 11:20:21;;;;;;;10.23;4.15;;;15.80;93.30;;;;;;4255350;27;20524;-60
2022/11/08 11:23:01;;;;;;;13.60;8.20;;;15.80;93.30;;;;;;4247889;27;20065;-59
2022/11/08 11:25:51;;;;;;;0.77;0.77;;;15.80;93.30;;;;;;4241865;27;20067;-60
2022/11/08 11:28:32;;;;;;;2.95;2.78;;;15.80;93.70;;;;;;4232347;27;20046;-60
2022/11/08 11:31:16;;;;;;;51.28;4.47;;;15.80;93.30;;;;;;4241891;27;20046;-60
2022/11/08 11:33:58;;;;;;;12.43;8.25;;;15.80;93.70;;;;;;4224732;27;20504;-60
2022/11/08 11:36:39;;;;;;;25.33;7.50;;;15.80;93.30;;;;;;4225032;27;20054;-60
2022/11/08 11:39:26;;;;;;;1.35;1.35;;;15.80;93.30;;;;;;4225483;27;20051;-60
2022/11/08 11:42:13;;;;;;;8.15;3.22;;;15.80;93.20;;;;;;4247966;27;20058;-60
2022/11/08 11:45:22;;;;;;;2.53;2.42;;;15.80;93.20;;;;;;4241840;27;20133;-60
2022/11/08 11:48:06;;;;;;;3.17;2.03;;;15.80;93.30;;;;;;4240447;28;20053;-59
2022/11/08 11:50:49;;;;;;;1.73;1.63;;;15.80;93.20;;;;;;4240394;28;20469;-59
2022/11/08 11:53:35;;;;;;;1.48;1.38;;;15.90;93.30;;;;;;4225037;28;20055;-59
2022/11/08 11:56:39;;;;;;;1.50;1.50;;;15.80;93.20;;;;;;4241458;28;20122;-59
2022/11/08 11:59:45;;;;;;;2.47;2.40;;;15.90;93.20;;;;;;4250934;27;20405;-59
2022/11/08 12:02:48;;;;;;;9.43;4.53;;;15.80;93.50;;;;;;4223188;28;20123;-60
2022/11/08 12:05:50;;;;;;;2.70;2.50;;;15.90;93.10;;;;;;4233295;27;20538;-59
2022/11/08 12:08:51;;;;;;;3.38;3.10;;;15.90;93.10;;;;;;4229428;27;20115;-59
2022/11/08 12:11:44;;;;;;;1.48;1.40;;;15.90;93.00;;;;;;4248514;27;20058;-59
2022/11/08 12:14:48;;;;;;;3.70;1.65;;;15.90;93.00;;;;;;4224545;28;20063;-60
2022/11/08 12:17:47;;;;;;;25.00;3.40;;;15.90;93.00;;;;;;4225982;27;20125;-60
2022/11/08 12:20:43;;;;;;;2.42;2.33;;;15.90;93.00;;;;;;4240465;28;20054;-59
2022/11/08 12:24:03;;;;;;;4.03;2.55;;;15.90;93.00;;;;;;4258299;27;20058;-60
2022/11/08 12:26:53;;;;;;;0.77;0.77;;;15.90;93.00;;;;;;4178292;28;20497;-59
2022/11/08 12:29:44;;;;;;;2.03;1.92;;;15.90;93.00;;;;;;4204736;28;20051;-60
2022/11/08 12:32:45;;;;;;;1.90;1.80;;;15.90;93.00;;;;;;4225159;28;20110;-59
2022/11/08 12:35:37;;;;;;;7.10;3.88;;;15.90;92.90;;;;;;4209084;27;20067;-59
2022/11/08 12:38:28;;;;;;;7.57;4.70;;;15.90;92.90;;;;;;4223258;28;20059;-59
2022/11/08 12:41:17;;;;;;;1.42;1.42;;;16.00;93.00;;;;;;4224012;28;20505;-59
2022/11/08 12:44:17;;;;;;;1.08;1.08;;;16.00;92.90;;;;;;4224151;28;20050;-60
2022/11/08 12:47:17;;;;;;;3.83;3.55;;;16.00;92.90;;;;;;4249701;27;20091;-60
2022/11/08 12:50:13;;;;;;;1.67;0.90;;;16.00;93.10;;;;;;4258221;27;20397;-60
2022/11/08 12:53:16;;;;;;;4.50;3.20;;;16.00;93.30;;;;;;4261786;27;20065;-59
2022/11/08 12:55:58;;;;;;;1.40;1.40;;;16.00;93.80;;;;;;4226703;27;20646;-60
2022/11/08 12:58:44;;;;;;;8.68;2.40;;;16.00;93.40;;;;;;4233178;27;20050;-59
2022/11/08 13:01:25;;;;;;;0.85;0.85;;;16.00;93.30;;;;;;4249806;27;20410;-60
2022/11/08 13:04:23;;;;;;;2.42;1.27;;;16.00;93.20;;;;;;4242919;27;20111;-60
2022/11/08 13:07:15;;;;;;;23.80;3.97;;;16.00;93.20;;;;;;4243801;27;20386;-59
2022/11/08 13:10:00;;;;;;;6.47;3.90;;;16.00;93.20;;;;;;4243666;27;20058;-60
2022/11/08 13:12:53;;;;;;;1.67;1.58;;;16.00;93.10;;;;;;4243336;27;20054;-59
2022/11/08 13:15:34;;;;;;;3.03;1.55;;;16.00;93.10;;;;;;4259750;27;20497;-60
2022/11/08 13:18:33;;;;;;;0.20;0.20;;;16.10;93.10;;;;;;4248540;27;20050;-59
2022/11/08 13:21:37;;;;;;;10.55;2.10;;;16.10;93.00;;;;;;4227093;28;20501;-59
2022/11/08 13:24:43;;;;;;;0.22;0.22;;;16.10;93.00;;;;;;4213881;28;20092;-60
2022/11/08 13:27:34;;;;;;;0.10;0.10;;;16.10;93.00;;;;;;4258955;27;20409;-58
2022/11/08 13:30:39;;;;;;;2.17;2.00;;;16.10;93.00;;;;;;4242139;27;20509;-58
2022/11/08 13:33:28;;;;;;;4.15;3.22;;;16.10;93.00;;;;;;4243648;27;20211;-58
2022/11/08 13:36:22;;;;;;;0.65;0.65;;;16.10;92.90;;;;;;4243469;27;20386;-58
2022/11/08 13:39:22;;;;;;;8.88;1.23;;;16.10;92.90;;;;;;4257779;27;20053;-57
2022/11/08 13:42:54;;;;;;;5.47;3.20;;;16.10;93.40;;;;;;4260740;27;20405;-60
2022/11/08 13:45:35;;;;;;;0.73;0.65;;;16.10;93.20;;;;;;4260559;27;20115;-59
2022/11/08 13:48:35;;;;;;;0.10;0.10;;;16.10;93.50;;;;;;4256957;27;20051;-60
2022/11/08 13:51:26;;;;;;;1.75;1.60;;;16.10;93.50;;;;;;4226232;28;20054;-61
2022/11/08 13:54:48;;;;;;;1.48;1.38;;;16.10;93.50;;;;;;4241284;27;20555;-60
2022/11/08 13:57:59;;;;;;;0.73;0.73;;;16.10;93.40;;;;;;4209148;27;20125;-60
2022/11/08 14:00:46;;;;;;;2.70;0.63;;;16.10;93.40;;;;;;4235733;27;20045;-60
2022/11/08 14:03:54;;;;;;;0.00;0.00;;;16.10;93.90;;;;;;4252539;27;20111;-60
2022/11/08 14:06:42;;;;;;;2.58;1.55;;;16.20;93.40;;;;;;4231951;27;20058;-60
2022/11/08 14:09:37;;;;;;;5.47;2.17;;;16.20;93.40;;;;;;4226387;28;20179;-60
2022/11/08 14:12:23;;;;;;;0.75;0.75;;;16.20;93.30;;;;;;4242486;27;20481;-60
2022/11/08 14:15:15;;;;;;;0.40;0.40;;;16.20;93.20;;;;;;4226558;27;20050;-60
2022/11/08 14:17:59;;;;;;;0.65;0.65;;;16.20;93.20;;;;;;4243879;27;20075;-59
2022/11/08 14:20:42;;;;;;;0.10;0.10;;;16.20;93.10;;;;;;4234878;27;20050;-60
2022/11/08 14:23:27;;;;;;;2.45;2.35;;;16.20;93.10;;;;;;4225628;28;20509;-61
2022/11/08 14:26:12;;;;;;;0.60;0.60;;;16.20;93.10;;;;;;4226022;28;20069;-60
2022/11/08 14:28:53;;;;;;;0.10;0.10;;;16.20;93.10;;;;;;4225806;28;20193;-60
2022/11/08 14:31:36;;;;;;;0.20;0.20;;;16.20;93.10;;;;;;4252032;27;20405;-60
2022/11/08 14:34:31;;;;;;;3.08;0.88;;;16.20;93.10;;;;;;4226036;27;20054;-60
2022/11/08 14:37:25;;;;;;;0.10;0.10;;;16.10;93.00;;;;;;4234882;27;20069;-60
2022/11/08 14:40:07;;;;;;;0.17;0.17;;;16.20;93.10;;;;;;4245198;27;20050;-59